DFIRE EDWE-EDXW
Flight info
| Callsign | DFIRE |
|---|---|
| Flight time | 0h 54m |
| Altitude | 21000 |
| Route | JUIST N873 HUNQI DCT ROCZO DCT OLDIP VFR |
| Aircraft | PC12/L-SDFGRWY/S |
Departure
| Time | 2026-05-08 18:01 |
|---|---|
| Airport | Emden Airport (EDWE) |
Arrival
| Time | 2026-05-08 18:56 |
|---|---|
| Airport | Westerland Sylt Airport (EDXW) |
| Time | Latitude | Longitude | Altitude | Speed | Heading |
|---|---|---|---|---|---|
| 2026-05-08 17:46 | 53.38934 | 7.22866 | 5 ft | 0 kts | 161° |
| 2026-05-08 17:58 | 53.38931 | 7.22862 | 5 ft | 2 kts | 263° |
| 2026-05-08 17:59 | 53.38939 | 7.22760 | 5 ft | 14 kts | 252° |
| 2026-05-08 17:59 | 53.38931 | 7.22596 | 5 ft | 18 kts | 307° |
| 2026-05-08 17:59 | 53.38991 | 7.22451 | 5 ft | 22 kts | 252° |
| 2026-05-08 17:59 | 53.38928 | 7.22119 | 5 ft | 32 kts | 253° |
| 2026-05-08 18:00 | 53.38904 | 7.21859 | 6 ft | 27 kts | 276° |
| 2026-05-08 18:00 | 53.39013 | 7.22116 | 4 ft | 47 kts | 72° |
| 2026-05-08 18:00 | 53.39177 | 7.22994 | 61 ft | 100 kts | 73° |
| 2026-05-08 18:01 | 53.39416 | 7.24171 | 481 ft | 120 kts | 74° |
| 2026-05-08 18:01 | 53.39664 | 7.25504 | 1225 ft | 119 kts | 74° |
| 2026-05-08 18:01 | 53.40318 | 7.26401 | 1908 ft | 143 kts | 12° |
| 2026-05-08 18:01 | 53.41373 | 7.26256 | 2550 ft | 163 kts | 339° |
| 2026-05-08 18:02 | 53.42172 | 7.24735 | 2967 ft | 189 kts | 295° |
| 2026-05-08 18:02 | 53.42504 | 7.23380 | 3009 ft | 189 kts | 291° |
| 2026-05-08 18:02 | 53.43136 | 7.20616 | 3013 ft | 199 kts | 291° |
| 2026-05-08 18:02 | 53.43650 | 7.18365 | 3013 ft | 215 kts | 291° |
| 2026-05-08 18:03 | 53.44200 | 7.15968 | 3009 ft | 230 kts | 291° |
| 2026-05-08 18:03 | 53.44853 | 7.13442 | 3009 ft | 240 kts | 297° |
| 2026-05-08 18:03 | 53.45613 | 7.10938 | 3123 ft | 240 kts | 298° |
| 2026-05-08 18:03 | 53.46378 | 7.08461 | 3284 ft | 239 kts | 298° |
| 2026-05-08 18:04 | 53.47149 | 7.05986 | 3436 ft | 240 kts | 298° |
| 2026-05-08 18:04 | 53.47663 | 7.04344 | 3537 ft | 239 kts | 298° |
| 2026-05-08 18:04 | 53.48435 | 7.01859 | 3668 ft | 240 kts | 298° |
| 2026-05-08 18:04 | 53.49340 | 6.99531 | 3761 ft | 240 kts | 319° |
| 2026-05-08 18:05 | 53.50763 | 6.98235 | 4204 ft | 223 kts | 340° |
| 2026-05-08 18:05 | 53.52087 | 6.97146 | 5220 ft | 200 kts | 333° |
| 2026-05-08 18:05 | 53.53323 | 6.96925 | 6416 ft | 169 kts | 26° |
| 2026-05-08 18:05 | 53.54240 | 6.97948 | 7456 ft | 156 kts | 39° |
| 2026-05-08 18:06 | 53.55141 | 6.99021 | 8222 ft | 161 kts | 35° |
| 2026-05-08 18:06 | 53.56105 | 7.00043 | 9031 ft | 165 kts | 34° |
| 2026-05-08 18:06 | 53.57118 | 7.01048 | 9777 ft | 177 kts | 32° |
| 2026-05-08 18:06 | 53.58208 | 7.02116 | 10476 ft | 183 kts | 31° |
| 2026-05-08 18:07 | 53.59340 | 7.03219 | 10999 ft | 198 kts | 30° |
| 2026-05-08 18:07 | 53.60616 | 7.04463 | 11167 ft | 227 kts | 30° |
| 2026-05-08 18:07 | 53.62063 | 7.05878 | 11180 ft | 252 kts | 30° |
| 2026-05-08 18:07 | 53.63622 | 7.07404 | 11178 ft | 264 kts | 30° |
| 2026-05-08 18:08 | 53.65227 | 7.08970 | 11179 ft | 269 kts | 30° |
| 2026-05-08 18:08 | 53.66857 | 7.10561 | 11179 ft | 271 kts | 30° |
| 2026-05-08 18:08 | 53.68492 | 7.12160 | 11175 ft | 271 kts | 30° |
| 2026-05-08 18:08 | 53.70126 | 7.13764 | 11179 ft | 272 kts | 30° |
| 2026-05-08 18:09 | 53.71763 | 7.15371 | 11172 ft | 272 kts | 30° |
| 2026-05-08 18:09 | 53.73400 | 7.16978 | 11181 ft | 272 kts | 30° |
| 2026-05-08 18:09 | 53.74983 | 7.18626 | 11173 ft | 271 kts | 37° |
| 2026-05-08 18:09 | 53.76420 | 7.20701 | 11178 ft | 271 kts | 41° |
| 2026-05-08 18:10 | 53.77848 | 7.22777 | 11185 ft | 271 kts | 40° |
| 2026-05-08 18:10 | 53.79289 | 7.24845 | 11181 ft | 271 kts | 40° |
| 2026-05-08 18:10 | 53.80725 | 7.26917 | 11181 ft | 272 kts | 41° |
| 2026-05-08 18:10 | 53.82165 | 7.29008 | 11179 ft | 271 kts | 41° |
| 2026-05-08 18:11 | 53.83601 | 7.31091 | 11188 ft | 271 kts | 41° |
| 2026-05-08 18:11 | 53.85037 | 7.33173 | 11183 ft | 272 kts | 41° |
| 2026-05-08 18:11 | 53.86441 | 7.35250 | 11181 ft | 270 kts | 44° |
| 2026-05-08 18:11 | 53.87701 | 7.37607 | 11180 ft | 269 kts | 49° |
| 2026-05-08 18:12 | 53.88943 | 7.39992 | 11182 ft | 269 kts | 49° |
| 2026-05-08 18:12 | 53.90194 | 7.42364 | 11176 ft | 269 kts | 49° |
| 2026-05-08 18:12 | 53.91431 | 7.44706 | 11182 ft | 269 kts | 49° |
| 2026-05-08 18:12 | 53.92677 | 7.47078 | 11183 ft | 270 kts | 49° |
| 2026-05-08 18:13 | 53.93922 | 7.49453 | 11180 ft | 269 kts | 49° |
| 2026-05-08 18:13 | 53.95169 | 7.51832 | 11186 ft | 269 kts | 49° |
| 2026-05-08 18:13 | 53.96418 | 7.54216 | 11186 ft | 270 kts | 49° |
| 2026-05-08 18:13 | 53.97665 | 7.56601 | 11186 ft | 269 kts | 49° |
| 2026-05-08 18:14 | 53.98908 | 7.58977 | 11183 ft | 269 kts | 49° |
| 2026-05-08 18:14 | 54.00154 | 7.61362 | 11183 ft | 269 kts | 49° |
| 2026-05-08 18:14 | 54.01395 | 7.63742 | 11189 ft | 268 kts | 49° |
| 2026-05-08 18:14 | 54.02635 | 7.66121 | 11188 ft | 268 kts | 49° |
| 2026-05-08 18:15 | 54.03857 | 7.68467 | 11185 ft | 268 kts | 49° |
| 2026-05-08 18:15 | 54.05094 | 7.70844 | 11190 ft | 268 kts | 49° |
| 2026-05-08 18:15 | 54.06331 | 7.73224 | 11190 ft | 268 kts | 49° |
| 2026-05-08 18:15 | 54.07570 | 7.75610 | 11190 ft | 268 kts | 49° |
| 2026-05-08 18:16 | 54.08808 | 7.77997 | 11190 ft | 268 kts | 49° |
| 2026-05-08 18:16 | 54.10041 | 7.80377 | 11192 ft | 268 kts | 49° |
| 2026-05-08 18:16 | 54.11279 | 7.82767 | 11192 ft | 268 kts | 49° |
| 2026-05-08 18:16 | 54.12512 | 7.85151 | 11193 ft | 268 kts | 49° |
| 2026-05-08 18:17 | 54.13743 | 7.87535 | 11193 ft | 268 kts | 49° |
| 2026-05-08 18:17 | 54.14977 | 7.89924 | 11193 ft | 268 kts | 49° |
| 2026-05-08 18:17 | 54.16184 | 7.92344 | 11190 ft | 267 kts | 54° |
| 2026-05-08 18:17 | 54.16825 | 7.95220 | 11179 ft | 259 kts | 84° |
| 2026-05-08 18:18 | 54.16628 | 7.98126 | 11182 ft | 239 kts | 110° |
| 2026-05-08 18:18 | 54.15789 | 8.00416 | 11181 ft | 221 kts | 135° |
| 2026-05-08 18:18 | 54.14597 | 8.01819 | 11178 ft | 198 kts | 157° |
| 2026-05-08 18:18 | 54.13329 | 8.02335 | 11176 ft | 180 kts | 177° |
| 2026-05-08 18:19 | 54.12109 | 8.02117 | 11180 ft | 174 kts | 195° |
| 2026-05-08 18:19 | 54.11021 | 8.01265 | 11182 ft | 173 kts | 214° |
| 2026-05-08 18:19 | 54.10146 | 7.99887 | 11184 ft | 175 kts | 229° |
| 2026-05-08 18:19 | 54.09343 | 7.98318 | 11187 ft | 176 kts | 228° |
| 2026-05-08 18:20 | 54.08531 | 7.96758 | 11186 ft | 176 kts | 228° |
| 2026-05-08 18:20 | 54.07720 | 7.95191 | 11189 ft | 176 kts | 228° |
| 2026-05-08 18:20 | 54.06912 | 7.93624 | 11185 ft | 176 kts | 228° |
| 2026-05-08 18:20 | 54.06102 | 7.92055 | 11183 ft | 174 kts | 228° |
| 2026-05-08 18:21 | 54.05310 | 7.90518 | 11181 ft | 171 kts | 229° |
| 2026-05-08 18:21 | 54.04712 | 7.88806 | 11180 ft | 173 kts | 248° |
| 2026-05-08 18:21 | 54.04456 | 7.86765 | 11184 ft | 177 kts | 266° |
| 2026-05-08 18:21 | 54.04595 | 7.84729 | 11181 ft | 176 kts | 284° |
| 2026-05-08 18:22 | 54.05113 | 7.82850 | 11181 ft | 176 kts | 303° |
| 2026-05-08 18:22 | 54.05962 | 7.81347 | 11178 ft | 177 kts | 322° |
| 2026-05-08 18:22 | 54.07052 | 7.80388 | 11181 ft | 178 kts | 341° |
| 2026-05-08 18:22 | 54.08288 | 7.80081 | 11184 ft | 181 kts | 1° |
| 2026-05-08 18:23 | 54.09529 | 7.80493 | 11188 ft | 184 kts | 20° |
| 2026-05-08 18:23 | 54.10615 | 7.81585 | 11185 ft | 181 kts | 40° |
| 2026-05-08 18:23 | 54.11464 | 7.83138 | 11187 ft | 178 kts | 50° |
| 2026-05-08 18:23 | 54.12291 | 7.84732 | 11190 ft | 180 kts | 49° |
| 2026-05-08 18:24 | 54.13118 | 7.86320 | 11195 ft | 181 kts | 49° |
| 2026-05-08 18:24 | 54.13952 | 7.87935 | 11191 ft | 181 kts | 49° |
| 2026-05-08 18:24 | 54.14785 | 7.89550 | 11198 ft | 180 kts | 49° |
| 2026-05-08 18:24 | 54.15618 | 7.91165 | 11199 ft | 181 kts | 49° |
| 2026-05-08 18:25 | 54.16386 | 7.92845 | 11193 ft | 182 kts | 62° |
| 2026-05-08 18:25 | 54.16799 | 7.94866 | 11191 ft | 180 kts | 81° |
| 2026-05-08 18:25 | 54.16807 | 7.96977 | 11188 ft | 177 kts | 100° |
| 2026-05-08 18:25 | 54.16420 | 7.98953 | 11184 ft | 175 kts | 118° |
| 2026-05-08 18:26 | 54.15689 | 8.00600 | 11186 ft | 174 kts | 137° |
| 2026-05-08 18:26 | 54.14692 | 8.01760 | 11187 ft | 173 kts | 156° |
| 2026-05-08 18:26 | 54.13538 | 8.02317 | 11185 ft | 172 kts | 174° |
| 2026-05-08 18:26 | 54.12359 | 8.02229 | 11187 ft | 172 kts | 192° |
| 2026-05-08 18:27 | 54.11240 | 8.01506 | 11186 ft | 172 kts | 210° |
| 2026-05-08 18:27 | 54.10586 | 8.00691 | 11189 ft | 173 kts | 222° |
| 2026-05-08 18:27 | 54.09526 | 7.98669 | 11189 ft | 172 kts | 228° |
| 2026-05-08 18:27 | 54.08729 | 7.97140 | 11194 ft | 172 kts | 228° |
| 2026-05-08 18:28 | 54.07928 | 7.95593 | 11186 ft | 175 kts | 228° |
| 2026-05-08 18:28 | 54.07135 | 7.94056 | 11195 ft | 175 kts | 228° |
| 2026-05-08 18:28 | 54.06327 | 7.92490 | 11199 ft | 175 kts | 228° |
| 2026-05-08 18:28 | 54.05527 | 7.90942 | 11196 ft | 173 kts | 228° |
| 2026-05-08 18:29 | 54.04835 | 7.89288 | 11180 ft | 173 kts | 244° |
| 2026-05-08 18:29 | 54.04487 | 7.87322 | 11184 ft | 174 kts | 261° |
| 2026-05-08 18:29 | 54.04521 | 7.85260 | 11178 ft | 175 kts | 279° |
| 2026-05-08 18:29 | 54.04942 | 7.83315 | 11181 ft | 176 kts | 298° |
| 2026-05-08 18:30 | 54.05711 | 7.81694 | 11178 ft | 177 kts | 317° |
| 2026-05-08 18:30 | 54.06752 | 7.80577 | 11183 ft | 178 kts | 336° |
| 2026-05-08 18:30 | 54.07941 | 7.80095 | 11185 ft | 179 kts | 355° |
| 2026-05-08 18:30 | 54.09176 | 7.80300 | 11184 ft | 179 kts | 15° |
| 2026-05-08 18:31 | 54.10307 | 7.81186 | 11189 ft | 180 kts | 34° |
| 2026-05-08 18:31 | 54.11218 | 7.82648 | 11192 ft | 181 kts | 50° |
| 2026-05-08 18:31 | 54.12048 | 7.84267 | 11190 ft | 182 kts | 49° |
| 2026-05-08 18:31 | 54.12887 | 7.85875 | 11199 ft | 180 kts | 49° |
| 2026-05-08 18:32 | 54.13715 | 7.87475 | 11188 ft | 179 kts | 49° |
| 2026-05-08 18:32 | 54.14539 | 7.89073 | 11193 ft | 179 kts | 49° |
| 2026-05-08 18:32 | 54.15366 | 7.90676 | 11194 ft | 180 kts | 49° |
| 2026-05-08 18:32 | 54.16216 | 7.92252 | 11195 ft | 181 kts | 44° |
| 2026-05-08 18:33 | 54.17111 | 7.93739 | 11198 ft | 182 kts | 45° |
| 2026-05-08 18:33 | 54.18013 | 7.95276 | 11200 ft | 183 kts | 45° |
| 2026-05-08 18:33 | 54.18906 | 7.96794 | 11204 ft | 180 kts | 45° |
| 2026-05-08 18:33 | 54.19794 | 7.98297 | 11203 ft | 179 kts | 45° |
| 2026-05-08 18:34 | 54.20678 | 7.99792 | 11206 ft | 179 kts | 45° |
| 2026-05-08 18:34 | 54.21569 | 8.01302 | 11206 ft | 180 kts | 45° |
| 2026-05-08 18:34 | 54.22461 | 8.02814 | 11208 ft | 180 kts | 45° |
| 2026-05-08 18:34 | 54.23354 | 8.04328 | 11198 ft | 181 kts | 45° |
| 2026-05-08 18:35 | 54.24242 | 8.05835 | 11204 ft | 179 kts | 45° |
| 2026-05-08 18:35 | 54.25124 | 8.07333 | 11197 ft | 178 kts | 45° |
| 2026-05-08 18:35 | 54.26001 | 8.08822 | 11200 ft | 177 kts | 45° |
| 2026-05-08 18:35 | 54.26863 | 8.10287 | 11190 ft | 177 kts | 45° |
| 2026-05-08 18:36 | 54.27742 | 8.11782 | 11196 ft | 179 kts | 45° |
| 2026-05-08 18:36 | 54.28631 | 8.13297 | 11194 ft | 180 kts | 45° |
| 2026-05-08 18:36 | 54.29521 | 8.14814 | 11202 ft | 181 kts | 45° |
| 2026-05-08 18:36 | 54.30412 | 8.16330 | 11197 ft | 180 kts | 45° |
| 2026-05-08 18:37 | 54.31294 | 8.17834 | 11196 ft | 178 kts | 45° |
| 2026-05-08 18:37 | 54.32173 | 8.19336 | 11197 ft | 178 kts | 45° |
| 2026-05-08 18:37 | 54.33036 | 8.20811 | 11195 ft | 177 kts | 45° |
| 2026-05-08 18:37 | 54.33913 | 8.22309 | 11195 ft | 178 kts | 45° |
| 2026-05-08 18:38 | 54.34798 | 8.23820 | 11194 ft | 179 kts | 45° |
| 2026-05-08 18:38 | 54.35684 | 8.25325 | 11194 ft | 179 kts | 45° |
| 2026-05-08 18:38 | 54.36568 | 8.26838 | 11194 ft | 180 kts | 45° |
| 2026-05-08 18:38 | 54.37450 | 8.28353 | 11203 ft | 180 kts | 45° |
| 2026-05-08 18:39 | 54.38337 | 8.29874 | 11205 ft | 181 kts | 45° |
| 2026-05-08 18:39 | 54.39227 | 8.31403 | 11205 ft | 180 kts | 45° |
| 2026-05-08 18:39 | 54.40107 | 8.32913 | 11202 ft | 178 kts | 45° |
| 2026-05-08 18:39 | 54.40968 | 8.34391 | 11194 ft | 177 kts | 45° |
| 2026-05-08 18:40 | 54.41839 | 8.35888 | 11192 ft | 177 kts | 45° |
| 2026-05-08 18:40 | 54.42719 | 8.37402 | 11194 ft | 179 kts | 45° |
| 2026-05-08 18:40 | 54.43602 | 8.38922 | 11201 ft | 180 kts | 45° |
| 2026-05-08 18:40 | 54.44461 | 8.40399 | 10792 ft | 176 kts | 46° |
| 2026-05-08 18:41 | 54.45336 | 8.41913 | 10334 ft | 177 kts | 46° |
| 2026-05-08 18:41 | 54.46203 | 8.43409 | 9907 ft | 176 kts | 45° |
| 2026-05-08 18:41 | 54.47060 | 8.44887 | 9464 ft | 174 kts | 46° |
| 2026-05-08 18:41 | 54.47906 | 8.46346 | 9039 ft | 171 kts | 47° |
| 2026-05-08 18:42 | 54.48742 | 8.47787 | 8613 ft | 168 kts | 47° |
| 2026-05-08 18:42 | 54.49776 | 8.48571 | 8182 ft | 172 kts | 359° |
| 2026-05-08 18:42 | 54.50848 | 8.47679 | 7750 ft | 174 kts | 322° |
| 2026-05-08 18:42 | 54.51787 | 8.46381 | 7330 ft | 173 kts | 323° |
| 2026-05-08 18:43 | 54.52728 | 8.45099 | 6920 ft | 173 kts | 323° |
| 2026-05-08 18:43 | 54.53659 | 8.43816 | 6530 ft | 170 kts | 323° |
| 2026-05-08 18:43 | 54.54585 | 8.42544 | 6066 ft | 171 kts | 324° |
| 2026-05-08 18:43 | 54.55516 | 8.41232 | 5613 ft | 172 kts | 323° |
| 2026-05-08 18:44 | 54.56432 | 8.39961 | 5241 ft | 167 kts | 323° |
| 2026-05-08 18:44 | 54.57348 | 8.38709 | 4794 ft | 168 kts | 323° |
| 2026-05-08 18:44 | 54.58268 | 8.37441 | 4331 ft | 170 kts | 323° |
| 2026-05-08 18:44 | 54.59194 | 8.36166 | 3934 ft | 169 kts | 322° |
| 2026-05-08 18:45 | 54.60112 | 8.34929 | 3533 ft | 167 kts | 323° |
| 2026-05-08 18:45 | 54.61030 | 8.33711 | 3096 ft | 168 kts | 323° |
| 2026-05-08 18:45 | 54.61894 | 8.32540 | 2997 ft | 146 kts | 323° |
| 2026-05-08 18:45 | 54.62673 | 8.31498 | 2606 ft | 148 kts | 324° |
| 2026-05-08 18:46 | 54.63508 | 8.30347 | 2182 ft | 155 kts | 323° |
| 2026-05-08 18:46 | 54.64309 | 8.29236 | 1993 ft | 135 kts | 336° |
| 2026-05-08 18:46 | 54.65225 | 8.28669 | 2009 ft | 148 kts | 347° |
| 2026-05-08 18:46 | 54.66219 | 8.28111 | 2013 ft | 151 kts | 347° |
| 2026-05-08 18:47 | 54.67211 | 8.27535 | 2008 ft | 151 kts | 346° |
| 2026-05-08 18:47 | 54.68206 | 8.26962 | 2009 ft | 151 kts | 346° |
| 2026-05-08 18:47 | 54.69191 | 8.26414 | 1997 ft | 148 kts | 347° |
| 2026-05-08 18:47 | 54.70194 | 8.26164 | 1996 ft | 142 kts | 4° |
| 2026-05-08 18:48 | 54.71174 | 8.26100 | 1997 ft | 141 kts | 4° |
| 2026-05-08 18:48 | 54.72119 | 8.26006 | 1790 ft | 135 kts | 3° |
| 2026-05-08 18:48 | 54.73093 | 8.25909 | 1383 ft | 140 kts | 3° |
| 2026-05-08 18:48 | 54.74053 | 8.25816 | 1078 ft | 137 kts | 3° |
| 2026-05-08 18:49 | 54.74949 | 8.25714 | 985 ft | 122 kts | 3° |
| 2026-05-08 18:49 | 54.75861 | 8.25584 | 1010 ft | 139 kts | 3° |
| 2026-05-08 18:49 | 54.76838 | 8.25480 | 1016 ft | 142 kts | 3° |
| 2026-05-08 18:49 | 54.77830 | 8.25396 | 1014 ft | 143 kts | 3° |
| 2026-05-08 18:50 | 54.78816 | 8.25302 | 1019 ft | 140 kts | 3° |
| 2026-05-08 18:50 | 54.79460 | 8.25245 | 1021 ft | 139 kts | 3° |
| 2026-05-08 18:50 | 54.80747 | 8.25128 | 1018 ft | 143 kts | 3° |
| 2026-05-08 18:50 | 54.81422 | 8.25057 | 1019 ft | 144 kts | 3° |
| 2026-05-08 18:51 | 54.82710 | 8.24923 | 1025 ft | 135 kts | 3° |
| 2026-05-08 18:51 | 54.83334 | 8.24856 | 1016 ft | 129 kts | 3° |
| 2026-05-08 18:51 | 54.84158 | 8.24741 | 1009 ft | 108 kts | 4° |
| 2026-05-08 18:51 | 54.84881 | 8.24584 | 991 ft | 108 kts | 3° |
| 2026-05-08 18:52 | 54.85650 | 8.24435 | 994 ft | 112 kts | 3° |
| 2026-05-08 18:52 | 54.86402 | 8.24287 | 990 ft | 106 kts | 3° |
| 2026-05-08 18:52 | 54.87145 | 8.24178 | 1016 ft | 102 kts | 14° |
| 2026-05-08 18:52 | 54.87769 | 8.24561 | 900 ft | 97 kts | 44° |
| 2026-05-08 18:53 | 54.88289 | 8.25326 | 861 ft | 97 kts | 50° |
| 2026-05-08 18:53 | 54.88741 | 8.26194 | 826 ft | 97 kts | 57° |
| 2026-05-08 18:53 | 54.89100 | 8.27115 | 810 ft | 87 kts | 68° |
| 2026-05-08 18:53 | 54.89349 | 8.28047 | 749 ft | 82 kts | 71° |
| 2026-05-08 18:54 | 54.89604 | 8.28928 | 643 ft | 82 kts | 67° |
| 2026-05-08 18:54 | 54.89905 | 8.29785 | 519 ft | 85 kts | 63° |
| 2026-05-08 18:54 | 54.90177 | 8.30636 | 387 ft | 75 kts | 64° |
| 2026-05-08 18:54 | 54.90450 | 8.31420 | 269 ft | 78 kts | 68° |
| 2026-05-08 18:55 | 54.91009 | 8.33094 | 73 ft | 77 kts | 66° |
| 2026-05-08 18:55 | 54.91269 | 8.33873 | 33 ft | 69 kts | 66° |
| 2026-05-08 18:55 | 54.91486 | 8.34526 | 32 ft | 58 kts | 58° |
| 2026-05-08 18:56 | 54.91616 | 8.34921 | 38 ft | 13 kts | 70° |
| 2026-05-08 18:56 | 54.91660 | 8.34946 | 39 ft | 11 kts | 347° |
| 2026-05-08 18:56 | 54.91754 | 8.34905 | 45 ft | 12 kts | 296° |
| 2026-05-08 18:56 | 54.91725 | 8.34667 | 44 ft | 27 kts | 255° |
| 2026-05-08 18:57 | 54.91659 | 8.34254 | 34 ft | 33 kts | 266° |
| 2026-05-08 18:57 | 54.91766 | 8.33795 | 32 ft | 50 kts | 305° |
| 2026-05-08 18:57 | 54.91896 | 8.33541 | 32 ft | 16 kts | 359° |
| 2026-05-08 18:57 | 54.91957 | 8.33532 | 32 ft | 13 kts | 270° |
| 2026-05-08 18:58 | 54.91955 | 8.33478 | 32 ft | 0 kts | 253° |
| 2026-05-08 19:00 | 54.91948 | 8.33403 | 32 ft | 13 kts | 253° |
| 2026-05-08 19:00 | 54.91838 | 8.33208 | 32 ft | 32 kts | 201° |
| 2026-05-08 19:00 | 54.91655 | 8.33179 | 31 ft | 23 kts | 179° |
| 2026-05-08 19:00 | 54.91507 | 8.33179 | 26 ft | 9 kts | 181° |
| 2026-05-08 19:01 | 54.91457 | 8.33201 | 27 ft | 0 kts | 149° |
| 2026-05-08 19:02 | 54.91444 | 8.33214 | 29 ft | 9 kts | 151° |
| 2026-05-08 19:02 | 54.91323 | 8.33236 | 25 ft | 27 kts | 204° |
| 2026-05-08 19:02 | 54.91158 | 8.33180 | 31 ft | 28 kts | 178° |
| 2026-05-08 19:02 | 54.91020 | 8.33007 | 29 ft | 28 kts | 281° |
| 2026-05-08 19:03 | 54.91124 | 8.32779 | 24 ft | 19 kts | 312° |
| 2026-05-08 19:03 | 54.91211 | 8.32618 | 24 ft | 17 kts | 326° |
| 2026-05-08 19:03 | 54.91282 | 8.32546 | 24 ft | 6 kts | 341° |
| 2026-05-08 19:03 | 54.91286 | 8.32489 | 24 ft | 0 kts | 247° |
| 2026-05-08 19:05 | 54.91285 | 8.32488 | 24 ft | 0 kts | 230° |
| 2026-05-08 19:05 | 54.91280 | 8.32541 | 24 ft | 6 kts | 120° |
| 2026-05-08 19:05 | 54.91255 | 8.32515 | 24 ft | 2 kts | 244° |
| 2026-05-08 19:05 | 54.91255 | 8.32514 | 24 ft | 0 kts | 244° |